KP58

Port Hope Airport

Port Hope, Michigan, USA
METAR KP58 210351Z AUTO 23006KT 03/M01 A2998 RMK AO1 SLP159 T00281011
Observed Flight Rules
Jan-21 @ 03:51 UTC (51 minutes ago)
Wind
230° at 6 knots
Temperatures Readings
Current 3°C / 37°F
Dewpoint -1°C / 30°F
Humidity 75%
Altimeter 29.98" Hg
Pressure 1015.9 hPa
Elevation 179
METAR KP58 210351Z AUTO 23006KT 03/M01 A2998 RMK AO1 SLP159 T00281011
Observed Flight Rules
Jan-21 @ 03:51 UTC
(51 minutes ago)
Wind
230° at 6 knots
Temperature Dewpoint
3°C / 37°F -1°C / 30°F
Humidity Altimeter Pressure
75% 29.98" Hg 1015.9 hPa